Nikos Kolias

Scout - Apollon
10 Dec 2028
Sunday
Process

Personality

Adaptability (9) Ambition (1) Controversy (10) Loyalty (1) Pressure (17) Professionalism (9) Sportsmanship (5) Temperament (11)

Profile

Coaching Style Democratic
License Continental C
Determination 4
Man Management 7
Motivating 11
Discipline 5
Job Satisfaction
100%
Fatigue
0%
Role Scout
Wage 51.4K p/w
Contract 14.03.2030

Performance

Behaviour Good
Training Effectiveness
49%
Player Development
35%
Injury Prevention
40%
Tactical Implementation
40%

Recent Events

Assessed a player now
Attended a recruitment meeting now
Recommended a transfer target now
Recommended a transfer target now
Recommended a transfer target now
Recommended a transfer target now
Assessed a player now
Observed a match now

Currently Monitoring

108
Player Club Status Ability Confidence Watched Last Observed Latest Vote
Estanislao López Colón Active 101 / 95 40% 2 06.12.2028 -
Denis Grigorjev Arsenal Tula Active 98 / 86 40% 1 06.12.2028 -
Noah Markmann Esbjerg Active 119 / 132 40% 1 06.12.2028 -
Riquelme Thompson-Jones Accrington Stanley Active 105 / 124 40% 3 04.12.2028 -
Miguel Figueiredo Benfica Active 136 / 120 40% 2 04.12.2028 -
Gideon Manaseh Ikorodu City Active 85 / 99 40% 6 04.12.2028 -
Andrija Bulatović Chamois Niortais Active 144 / 144 40% 2 02.12.2028 -
Maxim Radchenko Rostov Active 93 / 100 40% 1 27.11.2028 -
Joaquín Salas Reading Active 104 / 94 40% 1 27.11.2028 -
Joel Ezra Enyimba Active 102 / 105 40% 5 25.11.2028 -
Malte Hallin GIF Sundsvall Active 97 / 88 40% 1 25.11.2028 -
Jan Cedilnik Chikhura Active 90 / 96 40% 2 24.11.2028 -
Alejandro Tapia Central Norte Active 74 / 104 40% 3 24.11.2028 -
Noa Mikić Imotski Active 114 / 127 40% 1 24.11.2028 -
Tiago Gordillo San Miguel Active 96 / 102 40% 4 20.11.2028 -
Olivier Leroux Mouscron Active 118 / 113 40% 2 17.11.2028 -
Nejc Brekalo NK Domzale Active 111 / 102 40% 1 17.11.2028 -
Jack Shorrock Port Vale Active 112 / 124 40% 1 17.11.2028 -
Mauro Matorras Central Norte Active 101 / 88 40% 3 15.11.2028 -
Ramiro Villella Inter Active 100 / 109 40% 1 15.11.2028 -
Marko Zebić Lucko Active 113 / 113 40% 1 15.11.2028 -
Sergio Martínez Real Madrid Active 119 / 118 40% 2 14.11.2028 -
Malte Heyde Esbjerg Active 127 / 117 40% 1 14.11.2028 -
Martim Cunha Porto Active 124 / 128 40% 4 13.11.2028 -
Mateo Caballero Defensor Sporting Active 113 / 93 40% 1 13.11.2028 -
Andrey Ivlev Nizhniy Novgorod Active 119 / 121 40% 2 08.11.2028 -
Matías Magdaleno Estudiantes Active 107 / 102 40% 1 02.10.2028 -
Yury Oyarzo Racing Active 106 / 104 40% 1 08.09.2028 -
Agustín Medina Lanús Active 109 / 129 40% 1 08.09.2028 -
Christos Kamtsis Aris Thessaloniki Active 91 / 97 40% 1 06.09.2028 -
Aytor Herrera Mineros de Guayana Active 79 / 85 40% 2 04.09.2028 -
Óscar Hinojosa Metropolitanos Active 87 / 95 40% 1 24.08.2028 -
Francisco Arias Gimnasia y Esgrima Active 92 / 94 40% 1 24.08.2028 -
Lautaro Dufur Juventud Active 100 / 108 40% 1 24.08.2028 -
Cheveyo Tsawa Club Brugge Active 124 / 121 40% 1 23.08.2028 -
Abubakar Adams Aduana Stars Active 80 / 76 40% 4 31.07.2028 -
Khama Mabunda Platinum Stars Active 76 / 77 40% 3 31.07.2028 -
Hosea Michael Remo Stars Active 101 / 87 40% 2 30.07.2028 -
Federico Matarán Giana Erminio Active 97 / 107 40% 1 30.07.2028 -
Diego Vargas Universidad de Concepcion Active 88 / 91 40% 1 30.07.2028 -
Kwesi Sorotu Badori Berekum Chelsea Active 101 / 116 40% 2 29.07.2028 -
Mehdi Noorafkan Padideh Active 85 / 120 40% 1 29.07.2028 -
Duje Slatina Trapani Active 89 / 94 40% 1 29.07.2028 -
Seydou Fofana Pacos de Ferreira Active 98 / 123 40% 1 28.07.2028 -
Anderson Acevedo Bogota Active 76 / 84 40% 1 28.07.2028 -
Simone Suppa Virtus Verona Active 98 / 83 40% 1 21.07.2028 -
Jan Bürger Northampton Town Active 119 / 122 40% 2 18.07.2028 -
Lucas Camejo River Plate Active 88 / 89 40% 1 17.07.2028 -
Bence Szakos Aris Active 107 / 94 40% 1 17.07.2028 -
Bernardo Lima Porto Active 103 / 132 40% 5 14.07.2028 -
Alexandr Lubnin Zenit Penza Active 87 / 87 40% 1 14.07.2028 -
Jamal Iddrissou Pergolettese Active 116 / 131 40% 2 12.07.2028 -
Clayton Diandy Al-Diriyah Active 104 / 122 40% 3 12.07.2028 -
Valentino Huertas Morón Active 110 / 95 40% 1 12.07.2028 -
Ahmed Khaled Paralimni Active 101 / 117 40% 4 10.07.2028 -
Lamine Bèye Portimonense Active 111 / 116 40% 2 10.07.2028 -
Fletcher Boyd Accrington Stanley Active 106 / 102 40% 4 09.07.2028 -
Francesco Ferrara Latina Active 92 / 87 40% 2 09.07.2028 -
Ryan Kavuma-McQueen Accrington Stanley Active 133 / 122 40% 4 08.07.2028 -
Edison Gruezo Guadalajara Active 110 / 108 40% 2 08.07.2028 -
Luke Brooke-Smith Chesterfield Active 90 / 120 40% 3 06.07.2028 -
Igor Tyjon Barrow AFC Active 114 / 117 40% 5 06.07.2028 -
Paolo Dorini Estudiantes de Merida Active 82 / 103 40% 1 06.07.2028 -
Juan Cejas Ethnikos Achnas Rejected 111 / 115 65% 2 05.07.2028 Reject
Andrea Luongo Trento Active 112 / 101 40% 3 05.07.2028 -
Marco Tumminello Benevento Active 111 / 125 40% 1 05.07.2028 -
Tyler Fletcher Rotherham United Active 121 / 133 40% 1 05.07.2028 -
Kyle Wootton Stockport County Active 123 / 136 40% 1 03.07.2028 -
Augusto Bando Ascoli Active 111 / 122 40% 1 03.07.2028 -
Emanuele Schimmenti Potenza Active 115 / 109 40% 1 01.07.2028 -
Tobiáš Pališčák Zlin Active 108 / 105 40% 1 01.07.2028 -
Tobías Ramírez River Plate Active 131 / 122 40% 1 01.07.2028 -
Gabriele Gori Ascoli Active 121 / 126 40% 1 29.06.2028 -
Leandro Antunes Al-Riyadh Active 132 / 120 40% 1 26.06.2028 -
Baba N'Diaye Chaika Active 94 / 90 40% 2 07.06.2028 -
Lisandro Piñero Banfield Active 125 / 114 40% 1 07.06.2028 -
Tomás Peixoto Porto Active 99 / 120 40% 3 06.06.2028 -
Leo Pecover Swindon Town Active 105 / 116 40% 3 06.06.2028 -
Paulo Iago Sporting CP Active 99 / 107 40% 2 05.06.2028 -
Francisco Fernandes Porto Active 99 / 98 40% 2 05.06.2028 -
Georgy Makarov Dinamo St Petersburg Active 78 / 97 40% 1 04.06.2028 -
Ryan McAidoo Oldham Athletic Active 115 / 119 40% 6 02.06.2028 -
Reece Oxford Shrewsbury Town Active 112 / 117 40% 1 31.05.2028 -
Hayden Matthews Tranmere Rovers Active 113 / 105 40% 1 31.05.2028 -
Adam Senior Barnet Active 101 / 103 40% 1 31.05.2028 -
João Abreu Porto Active 95 / 112 40% 5 28.05.2028 -
Gabe Forsyth Colchester United Active 102 / 102 40% 3 28.05.2028 -
Matvey Ivanov Zenit Active 77 / 86 40% 3 20.05.2028 -
Kwandile Gumemde US Bougouni Active 76 / 88 40% 2 19.05.2028 -
Eduard Ihnatov Ospitaletto Active 101 / 93 40% 1 18.05.2028 -
İsak Vural Audace Cerignola Active 111 / 113 40% 3 07.05.2028 -
Mads Abrahamsen Zenit Penza Active 99 / 88 40% 2 07.05.2028 -
Jeremías Merlo Gimnasia La Plata Active 122 / 112 40% 1 04.05.2028 -
Gaël Lafont Dolomiti Bellunesi Active 98 / 113 40% 2 30.04.2028 -
Nathan Mbala FC Metz Active 95 / 105 40% 2 21.04.2028 -
Kiani Inge Groningen Active 101 / 113 40% 1 21.04.2028 -
Luca Scarlato Perugia Active 107 / 126 40% 2 13.04.2028 -
Jake Evans Crewe Alexandra Active 102 / 132 40% 3 07.04.2028 -
Vasco Sousa Porto Active 75 / 88 40% 1 07.04.2028 -
Ben Broggio Mansfield Town Active 107 / 118 40% 3 05.04.2028 -
Gabriel Mec Feirense Active 114 / 138 40% 2 02.04.2028 -
Gabriele Bertolini Vicenza Active 94 / 118 40% 1 30.03.2028 -
Lander Astiazarán Real Sociedad Active 109 / 113 40% 1 27.03.2028 -
Mamoutou Berthé US Bougouba Active 115 / 125 40% 1 19.03.2028 -
Dimitris Theodorou Anorthosis Active 100 / 109 65% 1 17.01.2028 Approve
Stevan Jovetić Active 120 / 116 65% 1 14.06.2027 Approve
Andreas Karamanolis Anorthosis Active 101 / 111 65% 1 10.08.2026 Approve
Fernando Forestieri AEL Active 129 / 133 65% 1 03.08.2026 Approve